createdAt,value
2017-07-19T00:00:26.114Z,14.7
2017-07-19T00:01:28.663Z,14.6
2017-07-19T00:02:30.838Z,14.6
2017-07-19T00:03:32.957Z,14.6
2017-07-19T00:04:35.165Z,14.6
2017-07-19T00:05:37.339Z,14.6
2017-07-19T00:06:40.173Z,14.6
2017-07-19T00:07:42.385Z,14.6
2017-07-19T00:08:44.840Z,14.6
2017-07-19T00:09:47.012Z,14.6
2017-07-19T00:10:49.182Z,14.5
2017-07-19T00:11:51.330Z,14.5
2017-07-19T00:12:53.789Z,14.5
2017-07-19T00:13:55.930Z,14.5
2017-07-19T00:14:58.134Z,14.5
2017-07-19T00:16:00.286Z,14.6
2017-07-19T00:17:03.173Z,14.6
2017-07-19T00:18:05.298Z,14.6
2017-07-19T00:19:07.478Z,14.6
2017-07-19T00:20:10.265Z,14.6
2017-07-19T00:21:12.724Z,14.5
2017-07-19T00:22:15.178Z,14.5
2017-07-19T00:23:17.632Z,14.5
2017-07-19T00:24:19.757Z,14.5
2017-07-19T00:25:22.243Z,14.5
2017-07-19T00:26:25.055Z,14.6
2017-07-19T00:27:27.178Z,14.6
2017-07-19T00:28:29.633Z,14.6
2017-07-19T00:29:32.095Z,14.6
2017-07-19T00:30:34.235Z,14.6
2017-07-19T00:31:36.370Z,14.6
2017-07-19T00:32:38.498Z,14.6
2017-07-19T00:33:40.617Z,14.6
2017-07-19T00:34:42.724Z,14.5
2017-07-19T00:35:44.849Z,14.5
2017-07-19T00:36:47.315Z,14.5
2017-07-19T00:37:49.436Z,14.5
2017-07-19T00:38:51.557Z,14.6
2017-07-19T00:39:53.676Z,14.6
2017-07-19T00:40:56.519Z,14.6
2017-07-19T00:41:58.993Z,14.6
2017-07-19T00:43:01.443Z,14.6
2017-07-19T00:44:04.248Z,14.6
2017-07-19T00:45:06.707Z,14.6
2017-07-19T00:46:09.237Z,14.6
2017-07-19T00:47:11.716Z,14.6
2017-07-19T00:48:14.166Z,14.6
2017-07-19T00:49:16.288Z,14.6
2017-07-19T00:50:18.749Z,14.6
2017-07-19T00:51:20.872Z,14.6
2017-07-19T00:52:23.329Z,14.6
2017-07-19T00:53:25.456Z,14.6
2017-07-19T00:54:27.569Z,14.6
2017-07-19T00:55:29.708Z,14.6
2017-07-19T00:56:31.841Z,14.6
2017-07-19T00:57:33.976Z,14.6
2017-07-19T00:58:36.454Z,14.6
2017-07-19T00:59:38.567Z,14.6
2017-07-19T01:00:40.682Z,14.6
2017-07-19T01:01:42.775Z,14.6
2017-07-19T01:02:44.852Z,14.5
2017-07-19T01:03:46.935Z,14.5
2017-07-19T01:04:49.355Z,14.5
2017-07-19T01:05:51.426Z,14.5
2017-07-19T01:06:53.501Z,14.5
2017-07-19T01:07:55.591Z,14.5
2017-07-19T01:08:57.623Z,14.4
2017-07-19T01:09:59.642Z,14.4
2017-07-19T01:11:01.668Z,14.4
2017-07-19T01:12:03.677Z,14.4
2017-07-19T01:13:06.057Z,14.4
2017-07-19T01:14:08.104Z,14.4
2017-07-19T01:15:10.484Z,14.4
2017-07-19T01:16:12.510Z,14.4
2017-07-19T01:17:15.211Z,14.4
2017-07-19T01:18:17.579Z,14.3
2017-07-19T01:19:20.632Z,14.3
2017-07-19T01:20:22.999Z,14.3
2017-07-19T01:21:25.038Z,14.3
2017-07-19T01:22:27.395Z,14.3
2017-07-19T01:23:29.768Z,14.3
2017-07-19T01:24:32.145Z,14.3
2017-07-19T01:25:34.867Z,14.3
2017-07-19T01:26:37.250Z,14.3
2017-07-19T01:27:39.272Z,14.3
2017-07-19T01:28:41.294Z,14.3
2017-07-19T01:29:43.328Z,14.3
2017-07-19T01:30:45.359Z,14.3
2017-07-19T01:31:47.381Z,14.3
2017-07-19T01:32:49.403Z,14.3
2017-07-19T01:33:51.429Z,14.3
2017-07-19T01:34:53.451Z,14.2
2017-07-19T01:35:55.474Z,14.2
2017-07-19T01:36:57.879Z,14.2
2017-07-19T01:37:59.906Z,14.2
2017-07-19T01:39:02.940Z,14.2
2017-07-19T01:40:05.308Z,14.2
2017-07-19T01:41:07.672Z,14.1
2017-07-19T01:42:09.688Z,14.1
2017-07-19T01:43:11.717Z,14.1
2017-07-19T01:44:13.740Z,14.1
2017-07-19T01:45:15.765Z,14.1
2017-07-19T01:46:17.784Z,14.1
2017-07-19T01:47:19.808Z,14.1
2017-07-19T01:48:21.842Z,14.1
2017-07-19T01:49:23.858Z,14.1
2017-07-19T01:50:26.225Z,14.1
2017-07-19T01:51:28.251Z,14.1
2017-07-19T01:52:30.623Z,14.1
2017-07-19T01:53:32.657Z,14.1
2017-07-19T01:54:34.686Z,14.1
2017-07-19T01:55:37.048Z,14.1
2017-07-19T01:56:39.078Z,14.1
2017-07-19T01:57:41.088Z,14.1
2017-07-19T01:58:43.117Z,14.1
2017-07-19T01:59:45.156Z,14.1
2017-07-19T02:00:47.174Z,14.1
2017-07-19T02:01:49.198Z,14.1
2017-07-19T02:02:51.224Z,14.1
2017-07-19T02:03:53.580Z,14.1
2017-07-19T02:04:55.947Z,14.1
2017-07-19T02:05:57.974Z,14.1
2017-07-19T02:06:59.998Z,14.1
2017-07-19T02:08:02.364Z,14.1
2017-07-19T02:09:05.056Z,14.1
2017-07-19T02:10:07.145Z,14.1
2017-07-19T02:11:09.498Z,14.1
2017-07-19T02:12:11.509Z,14.1
2017-07-19T02:13:13.540Z,14.1
2017-07-19T02:14:15.901Z,14.1
2017-07-19T02:15:18.273Z,14.1
2017-07-19T02:16:20.323Z,14.1
2017-07-19T02:17:22.350Z,14
2017-07-19T02:18:24.402Z,14
2017-07-19T02:19:26.724Z,14
2017-07-19T02:20:28.749Z,14
2017-07-19T02:21:31.458Z,14.1
2017-07-19T02:22:33.480Z,14.1
2017-07-19T02:23:35.844Z,14.1
2017-07-19T02:24:37.854Z,14
2017-07-19T02:25:40.580Z,14.1
2017-07-19T02:26:42.600Z,14.1
2017-07-19T02:27:44.964Z,14.1
2017-07-19T02:28:47.669Z,14.1
2017-07-19T02:29:49.701Z,14.1
2017-07-19T02:30:52.390Z,14.1
2017-07-19T02:31:54.775Z,14.1
2017-07-19T02:32:56.821Z,14.1
2017-07-19T02:33:59.192Z,14.1
2017-07-19T02:35:01.935Z,14.1
2017-07-19T02:36:04.297Z,14.1
2017-07-19T02:37:06.665Z,14.1
2017-07-19T02:38:08.684Z,14.1
2017-07-19T02:39:10.712Z,14.1
2017-07-19T02:40:13.448Z,14.1
2017-07-19T02:41:15.808Z,14.1
2017-07-19T02:42:17.847Z,14.1
2017-07-19T02:43:19.871Z,14.1
2017-07-19T02:44:21.903Z,14.2
2017-07-19T02:45:24.633Z,14.2
2017-07-19T02:46:26.666Z,14.2
2017-07-19T02:47:29.034Z,14.2
2017-07-19T02:48:31.402Z,14.2
2017-07-19T02:49:33.419Z,14.2
2017-07-19T02:50:35.457Z,14.2
2017-07-19T02:51:37.494Z,14.2
2017-07-19T02:52:39.513Z,14.3
2017-07-19T02:53:41.538Z,14.3
2017-07-19T02:54:44.238Z,14.3
2017-07-19T02:55:46.259Z,14.4
2017-07-19T02:56:48.283Z,14.4
2017-07-19T02:57:50.319Z,14.5
2017-07-19T02:58:52.352Z,14.5
2017-07-19T02:59:55.065Z,14.5
2017-07-19T03:00:57.433Z,14.5
2017-07-19T03:01:59.457Z,14.5
2017-07-19T03:03:01.822Z,14.5
2017-07-19T03:04:04.212Z,14.5
2017-07-19T03:05:06.586Z,14.5
2017-07-19T03:06:08.621Z,14.5
2017-07-19T03:07:11.318Z,14.5
2017-07-19T03:08:13.341Z,14.5
2017-07-19T03:09:16.067Z,14.5
2017-07-19T03:10:18.104Z,14.5
2017-07-19T03:11:20.462Z,14.5
2017-07-19T03:12:22.843Z,14.5
2017-07-19T03:13:24.851Z,14.5
2017-07-19T03:14:26.874Z,14.5
2017-07-19T03:15:29.584Z,14.5
2017-07-19T03:16:31.608Z,14.5
2017-07-19T03:17:33.636Z,14.5
2017-07-19T03:18:35.994Z,14.5
2017-07-19T03:19:38.023Z,14.5
2017-07-19T03:20:40.041Z,14.5
2017-07-19T03:21:42.073Z,14.5
2017-07-19T03:22:44.097Z,14.5
2017-07-19T03:23:46.124Z,14.5
2017-07-19T03:24:48.483Z,14.5
2017-07-19T03:25:51.221Z,14.5
2017-07-19T03:26:53.240Z,14.5
2017-07-19T03:27:55.264Z,14.5
2017-07-19T03:28:57.278Z,14.5
2017-07-19T03:29:59.974Z,14.5
2017-07-19T03:31:02.360Z,14.5
2017-07-19T03:32:04.732Z,14.5
2017-07-19T03:33:06.755Z,14.5
2017-07-19T03:34:08.782Z,14.5
2017-07-19T03:35:11.145Z,14.6
2017-07-19T03:36:13.522Z,14.6
2017-07-19T03:37:16.256Z,14.6
2017-07-19T03:38:18.971Z,14.6
2017-07-19T03:39:21.027Z,14.6
2017-07-19T03:40:23.391Z,14.6
2017-07-19T03:41:25.425Z,14.6
2017-07-19T03:42:27.450Z,14.6
2017-07-19T03:43:29.474Z,14.6
2017-07-19T03:44:31.846Z,14.6
2017-07-19T03:45:34.205Z,14.6
2017-07-19T03:46:36.242Z,14.6
2017-07-19T03:47:38.263Z,14.6
2017-07-19T03:48:40.289Z,14.6
2017-07-19T03:49:42.320Z,14.6
2017-07-19T03:50:44.350Z,14.6
2017-07-19T03:51:46.382Z,14.6
2017-07-19T03:52:48.754Z,14.6
2017-07-19T03:53:51.460Z,14.6
2017-07-19T03:54:53.517Z,14.6
2017-07-19T03:55:55.532Z,14.6
2017-07-19T03:56:58.232Z,14.6
2017-07-19T03:58:00.611Z,14.6
2017-07-19T03:59:03.328Z,14.6
2017-07-19T04:00:05.358Z,14.6
2017-07-19T04:01:07.420Z,14.6
2017-07-19T04:02:09.457Z,14.7
2017-07-19T04:03:11.483Z,14.7
2017-07-19T04:04:13.846Z,14.7
2017-07-19T04:05:15.871Z,14.8
2017-07-19T04:06:18.573Z,14.7
2017-07-19T04:07:21.633Z,14.8
2017-07-19T04:08:23.644Z,14.8
2017-07-19T04:09:26.014Z,14.8
2017-07-19T04:10:28.045Z,14.8
2017-07-19T04:11:30.070Z,14.8
2017-07-19T04:12:32.777Z,14.8
2017-07-19T04:13:35.164Z,14.9
2017-07-19T04:14:37.186Z,14.9
2017-07-19T04:15:39.565Z,14.9
2017-07-19T04:16:41.933Z,14.9
2017-07-19T04:17:43.972Z,14.9
2017-07-19T04:18:45.993Z,14.9
2017-07-19T04:19:48.344Z,15
2017-07-19T04:20:50.377Z,15
2017-07-19T04:21:52.403Z,15
2017-07-19T04:22:54.429Z,15
2017-07-19T04:23:56.465Z,15.1
2017-07-19T04:24:58.493Z,15.1
2017-07-19T04:26:00.854Z,15.1
2017-07-19T04:27:03.207Z,15.1
2017-07-19T04:28:05.229Z,15.1
2017-07-19T04:29:07.274Z,15.1
2017-07-19T04:30:09.302Z,15.1
2017-07-19T04:31:11.681Z,15.1
2017-07-19T04:32:14.063Z,15.1
2017-07-19T04:33:16.112Z,15.1
2017-07-19T04:34:18.481Z,15.1
2017-07-19T04:35:21.184Z,15.1
2017-07-19T04:36:23.220Z,15.2
2017-07-19T04:37:25.242Z,15.2
2017-07-19T04:38:27.275Z,15.3
2017-07-19T04:39:29.309Z,15.2
2017-07-19T04:40:31.335Z,15.2
2017-07-19T04:41:34.046Z,15.3
2017-07-19T04:42:36.076Z,15.3
2017-07-19T04:43:38.465Z,15.3
2017-07-19T04:44:40.505Z,15.3
2017-07-19T04:45:42.535Z,15.3
2017-07-19T04:46:44.904Z,15.4
2017-07-19T04:47:47.262Z,15.4
2017-07-19T04:48:49.278Z,15.4
2017-07-19T04:49:52.003Z,15.4
2017-07-19T04:50:54.040Z,15.4
2017-07-19T04:51:56.075Z,15.4
2017-07-19T04:52:58.451Z,15.4
2017-07-19T04:54:00.485Z,15.4
2017-07-19T04:55:02.513Z,15.5
2017-07-19T04:56:04.884Z,15.5
2017-07-19T04:57:06.916Z,15.5
2017-07-19T04:58:09.632Z,15.5
2017-07-19T04:59:12.004Z,15.5
2017-07-19T05:00:14.691Z,15.5
2017-07-19T05:01:16.721Z,15.5
2017-07-19T05:02:19.107Z,15.5
2017-07-19T05:03:21.819Z,15.6
2017-07-19T05:04:24.182Z,15.5
2017-07-19T05:05:26.209Z,15.6
2017-07-19T05:06:28.920Z,15.6
2017-07-19T05:07:30.939Z,15.6
2017-07-19T05:08:32.966Z,15.6
2017-07-19T05:09:34.997Z,15.7
2017-07-19T05:10:37.024Z,15.7
2017-07-19T05:11:39.408Z,15.7
2017-07-19T05:12:41.776Z,15.7
2017-07-19T05:13:43.802Z,15.7
2017-07-19T05:14:45.833Z,15.8
2017-07-19T05:15:47.857Z,15.8
2017-07-19T05:16:49.880Z,15.9
2017-07-19T05:17:51.908Z,15.9
2017-07-19T05:18:54.281Z,15.9
2017-07-19T05:19:56.310Z,15.9
2017-07-19T05:20:58.341Z,16
2017-07-19T05:22:00.364Z,16
2017-07-19T05:23:02.407Z,16.1
2017-07-19T05:24:05.106Z,16
2017-07-19T05:25:07.484Z,16
2017-07-19T05:26:09.845Z,16
2017-07-19T05:27:12.554Z,16
2017-07-19T05:28:14.941Z,16
2017-07-19T05:29:16.967Z,16
2017-07-19T05:30:19.674Z,16
2017-07-19T05:31:22.400Z,16.1
2017-07-19T05:32:24.410Z,16.1
2017-07-19T05:33:26.459Z,16.1
2017-07-19T05:34:28.486Z,16.1
2017-07-19T05:35:30.518Z,16.1
2017-07-19T05:36:32.552Z,16.1
2017-07-19T05:37:34.916Z,16.1
2017-07-19T05:38:36.951Z,16.2
2017-07-19T05:39:39.315Z,16.2
2017-07-19T05:40:41.675Z,16.2
2017-07-19T05:41:43.729Z,16.2
2017-07-19T05:42:46.099Z,16.2
2017-07-19T05:43:48.135Z,16.2
2017-07-19T05:44:50.156Z,16.2
2017-07-19T05:45:52.528Z,16.3
2017-07-19T05:46:54.556Z,16.3
2017-07-19T05:47:56.599Z,16.3
2017-07-19T05:48:58.963Z,16.3
2017-07-19T05:50:00.991Z,16.3
2017-07-19T05:51:03.016Z,16.4
2017-07-19T05:52:05.392Z,16.4
2017-07-19T05:53:07.765Z,16.4
2017-07-19T05:54:10.150Z,16.4
2017-07-19T05:55:12.181Z,16.5
2017-07-19T05:56:14.219Z,16.5
2017-07-19T05:57:16.578Z,16.6
2017-07-19T05:58:18.621Z,16.6
2017-07-19T05:59:21.022Z,16.6
2017-07-19T06:00:23.043Z,16.7
2017-07-19T06:01:25.090Z,16.7
2017-07-19T06:02:27.119Z,16.8
2017-07-19T06:03:29.162Z,16.8
2017-07-19T06:04:31.191Z,16.9
2017-07-19T06:05:33.918Z,16.9
2017-07-19T06:06:36.000Z,16.9
2017-07-19T06:07:38.020Z,16.9
2017-07-19T06:08:40.038Z,16.9
2017-07-19T06:09:42.090Z,16.9
2017-07-19T06:10:44.792Z,17
2017-07-19T06:11:46.824Z,17
2017-07-19T06:12:48.842Z,17
2017-07-19T06:13:50.881Z,17.1
2017-07-19T06:14:53.593Z,17.2
2017-07-19T06:15:55.964Z,17.2
2017-07-19T06:16:57.993Z,17.3
2017-07-19T06:18:00.018Z,17.3
2017-07-19T06:19:02.041Z,17.3
2017-07-19T06:20:05.097Z,17.4
2017-07-19T06:21:07.462Z,17.3
2017-07-19T06:22:09.501Z,17.3
2017-07-19T06:23:11.529Z,17.4
2017-07-19T06:24:13.556Z,17.5
2017-07-19T06:25:15.593Z,17.5
2017-07-19T06:26:17.617Z,17.6
2017-07-19T06:27:19.644Z,17.6
2017-07-19T06:28:21.661Z,17.6
2017-07-19T06:29:23.714Z,17.7
2017-07-19T06:30:25.759Z,17.7
2017-07-19T06:31:28.456Z,17.8
2017-07-19T06:32:30.827Z,17.8
2017-07-19T06:33:32.859Z,17.9
2017-07-19T06:34:34.888Z,17.9
2017-07-19T06:35:37.264Z,18
2017-07-19T06:36:39.288Z,18
2017-07-19T06:37:41.322Z,18
2017-07-19T06:38:43.361Z,18.1
2017-07-19T06:39:45.386Z,18.1
2017-07-19T06:40:47.420Z,18.1
2017-07-19T06:41:50.465Z,18.1
2017-07-19T06:42:52.503Z,18.1
2017-07-19T06:43:54.870Z,18.1
2017-07-19T06:44:56.904Z,18.1
2017-07-19T06:45:58.937Z,18.2
2017-07-19T06:47:01.321Z,18.3
2017-07-19T06:48:04.062Z,18.3
2017-07-19T06:49:06.430Z,18.4
2017-07-19T06:50:08.460Z,18.4
2017-07-19T06:51:10.516Z,18.4
2017-07-19T06:52:12.545Z,18.4
2017-07-19T06:53:14.581Z,18.5
2017-07-19T06:54:16.620Z,18.5
2017-07-19T06:55:19.318Z,18.5
2017-07-19T06:56:21.677Z,18.6
2017-07-19T06:57:23.713Z,18.6
2017-07-19T06:58:25.737Z,18.7
2017-07-19T06:59:27.771Z,18.7
2017-07-19T07:00:30.144Z,18.7
2017-07-19T07:01:32.175Z,18.8
2017-07-19T07:02:34.584Z,18.9
2017-07-19T07:03:37.034Z,18.9
2017-07-19T07:04:39.177Z,19
2017-07-19T07:05:41.658Z,19
2017-07-19T07:06:43.783Z,19
2017-07-19T07:07:45.893Z,19.1
2017-07-19T07:08:48.020Z,19.2
2017-07-19T07:09:50.424Z,19.2
2017-07-19T07:10:52.503Z,19.3
2017-07-19T07:11:55.017Z,19.3
2017-07-19T07:12:57.162Z,19.4
2017-07-19T07:13:59.307Z,19.4
2017-07-19T07:15:01.462Z,19.4
2017-07-19T07:16:03.960Z,19.5
2017-07-19T07:17:06.694Z,19.6
2017-07-19T07:18:08.810Z,19.7
2017-07-19T07:19:10.966Z,19.7
2017-07-19T07:20:13.504Z,19.8
2017-07-19T07:21:15.939Z,19.9
2017-07-19T07:22:18.362Z,19.9
2017-07-19T07:23:20.437Z,19.9
2017-07-19T07:24:22.538Z,19.9
2017-07-19T07:25:24.692Z,20
2017-07-19T07:26:26.821Z,20
2017-07-19T07:27:28.946Z,20.1
2017-07-19T07:28:31.440Z,20.2
2017-07-19T07:29:33.755Z,20.2
2017-07-19T07:30:36.491Z,20.2
2017-07-19T07:31:38.921Z,20.2
2017-07-19T07:32:41.023Z,20.3
2017-07-19T07:33:43.457Z,20.4
2017-07-19T07:34:46.007Z,20.4
2017-07-19T07:35:48.069Z,20.5
2017-07-19T07:36:50.218Z,20.5
2017-07-19T07:37:52.285Z,20.5
2017-07-19T07:38:54.350Z,20.5
2017-07-19T07:39:56.432Z,20.5
2017-07-19T07:40:58.873Z,20.5
2017-07-19T07:42:00.957Z,20.6
2017-07-19T07:43:03.067Z,20.6
2017-07-19T07:44:05.275Z,20.7
2017-07-19T07:45:07.387Z,20.8
2017-07-19T07:46:09.505Z,20.8
2017-07-19T07:47:11.633Z,20.9
2017-07-19T07:48:13.717Z,20.9
2017-07-19T07:49:15.832Z,20.9
2017-07-19T07:50:17.919Z,20.9
2017-07-19T07:51:20.008Z,21
2017-07-19T07:52:22.136Z,21
2017-07-19T07:53:24.242Z,21
2017-07-19T07:54:26.772Z,21.1
2017-07-19T07:55:28.846Z,21.2
2017-07-19T07:56:30.988Z,21.2
2017-07-19T07:57:33.088Z,21.2
2017-07-19T07:58:35.199Z,21.2
2017-07-19T07:59:37.633Z,21.3
2017-07-19T08:00:39.704Z,21.3
2017-07-19T08:01:42.151Z,21.3
2017-07-19T08:02:44.229Z,21.3
2017-07-19T08:03:46.679Z,21.3
2017-07-19T08:04:48.862Z,21.4
2017-07-19T08:05:51.655Z,21.4
2017-07-19T08:06:53.754Z,21.4
2017-07-19T08:07:55.845Z,21.5
2017-07-19T08:08:57.995Z,21.5
2017-07-19T08:10:00.124Z,21.6
2017-07-19T08:11:02.936Z,21.6
2017-07-19T08:12:05.062Z,21.6
2017-07-19T08:13:07.555Z,21.7
2017-07-19T08:14:09.704Z,21.7
2017-07-19T08:15:11.858Z,21.8
2017-07-19T08:16:13.968Z,21.8
2017-07-19T08:17:16.101Z,21.8
2017-07-19T08:18:18.226Z,21.8
2017-07-19T08:19:20.653Z,21.8
2017-07-19T08:20:22.818Z,21.9
2017-07-19T08:21:25.003Z,22
2017-07-19T08:22:27.105Z,22
2017-07-19T08:23:29.383Z,22.1
2017-07-19T08:24:31.562Z,22.1
2017-07-19T08:25:33.955Z,22.1
2017-07-19T08:26:36.374Z,22.1
2017-07-19T08:27:38.489Z,22.2
2017-07-19T08:28:40.579Z,22.2
2017-07-19T08:29:43.069Z,22.2
2017-07-19T08:30:45.132Z,22.3
2017-07-19T08:31:47.250Z,22.4
2017-07-19T08:32:49.383Z,22.4
2017-07-19T08:33:51.491Z,22.5
2017-07-19T08:34:53.564Z,22.5
2017-07-19T08:35:55.726Z,22.7
2017-07-19T08:36:58.150Z,22.8
2017-07-19T08:38:00.314Z,22.9
2017-07-19T08:39:03.097Z,22.9
2017-07-19T08:40:05.860Z,22.8
2017-07-19T08:41:07.938Z,23
2017-07-19T08:42:09.995Z,23.1
2017-07-19T08:43:12.069Z,23.2
2017-07-19T08:44:14.471Z,23.4
2017-07-19T08:45:16.545Z,23.5
2017-07-19T08:46:18.948Z,23.6
2017-07-19T08:47:21.036Z,23.6
2017-07-19T08:48:23.410Z,23.6
2017-07-19T08:49:25.827Z,23.8
2017-07-19T08:50:27.891Z,24
2017-07-19T08:51:30.324Z,24.1
2017-07-19T08:52:32.395Z,24.1
2017-07-19T08:53:34.472Z,24.2
2017-07-19T08:54:36.550Z,24.3
2017-07-19T08:55:39.308Z,24.5
2017-07-19T08:56:41.379Z,24.6
2017-07-19T08:57:43.462Z,24.7
2017-07-19T08:58:45.536Z,24.7
2017-07-19T08:59:47.975Z,24.6
2017-07-19T09:00:50.026Z,24.6
2017-07-19T09:01:52.104Z,24.7
2017-07-19T09:02:54.171Z,24.7
2017-07-19T09:03:56.227Z,24.8
2017-07-19T09:04:59.001Z,24.8
2017-07-19T09:06:01.432Z,24.8
2017-07-19T09:07:04.173Z,25
2017-07-19T09:08:06.933Z,25.1
2017-07-19T09:09:09.689Z,25.1
2017-07-19T09:10:11.750Z,25
2017-07-19T09:11:13.822Z,25.1
2017-07-19T09:12:15.891Z,24.9
2017-07-19T09:13:18.656Z,25
2017-07-19T09:14:21.072Z,25.1
2017-07-19T09:15:23.145Z,25.1
2017-07-19T09:16:25.216Z,25.2
2017-07-19T09:17:27.277Z,25.3
2017-07-19T09:18:30.029Z,25.3
2017-07-19T09:19:32.103Z,25.4
2017-07-19T09:20:34.173Z,25.3
2017-07-19T09:21:36.235Z,25.3
2017-07-19T09:22:38.655Z,25.4
2017-07-19T09:23:40.740Z,25.3
2017-07-19T09:24:42.815Z,25.3
2017-07-19T09:25:44.882Z,25.4
2017-07-19T09:26:47.305Z,25.6
2017-07-19T09:27:49.383Z,25.7
2017-07-19T09:28:51.449Z,25.9
2017-07-19T09:29:53.515Z,25.9
2017-07-19T09:30:55.578Z,25.9
2017-07-19T09:31:57.654Z,26
2017-07-19T09:32:59.721Z,26
2017-07-19T09:34:01.790Z,26.1
2017-07-19T09:35:03.887Z,26
2017-07-19T09:36:05.973Z,26
2017-07-19T09:37:08.388Z,26
2017-07-19T09:38:10.466Z,26.1
2017-07-19T09:39:12.522Z,26.3
2017-07-19T09:40:14.955Z,26.2
2017-07-19T09:41:17.026Z,26.3
2017-07-19T09:42:19.424Z,26.1
2017-07-19T09:43:21.495Z,26.1
2017-07-19T09:44:23.899Z,26.1
2017-07-19T09:45:25.976Z,26.1
2017-07-19T09:46:28.391Z,26.4
2017-07-19T09:47:31.148Z,26.3
2017-07-19T09:48:33.222Z,26.7
2017-07-19T09:49:35.283Z,26.7
2017-07-19T09:50:37.691Z,26.6
2017-07-19T09:51:40.106Z,26.6
2017-07-19T09:52:42.184Z,26.5
2017-07-19T09:53:44.262Z,26.5
2017-07-19T09:54:46.327Z,26.7
2017-07-19T09:55:48.429Z,26.3
2017-07-19T09:56:50.848Z,26.4
2017-07-19T09:57:52.915Z,26.5
2017-07-19T09:58:55.339Z,26.5
2017-07-19T09:59:57.420Z,26.4
2017-07-19T10:00:59.831Z,26.6
2017-07-19T10:02:02.584Z,26.8
2017-07-19T10:03:04.996Z,26.8
2017-07-19T10:04:07.092Z,26.8
2017-07-19T10:05:09.165Z,26.7
2017-07-19T10:06:11.236Z,26.9
2017-07-19T10:07:13.317Z,27.1
2017-07-19T10:08:15.718Z,26.9
2017-07-19T10:09:18.146Z,26.8
2017-07-19T10:10:20.552Z,26.7
2017-07-19T10:11:22.621Z,26.8
2017-07-19T10:12:25.034Z,26.9
2017-07-19T10:13:27.112Z,27.1
2017-07-19T10:14:29.187Z,27.1
2017-07-19T10:15:31.263Z,27.1
2017-07-19T10:16:33.690Z,27.1
2017-07-19T10:17:35.766Z,27.2
2017-07-19T10:18:37.837Z,27.3
2017-07-19T10:19:40.248Z,27.3
2017-07-19T10:20:42.337Z,27.3
2017-07-19T10:21:44.755Z,27.2
2017-07-19T10:22:47.524Z,27.2
2017-07-19T10:23:49.592Z,27.1
2017-07-19T10:24:51.672Z,27.2
2017-07-19T10:25:55.110Z,27
2017-07-19T10:26:57.526Z,27
2017-07-19T10:27:59.605Z,27
2017-07-19T10:29:02.034Z,26.9
2017-07-19T10:30:04.103Z,26.8
2017-07-19T10:31:06.199Z,26.8
2017-07-19T10:32:08.275Z,27
2017-07-19T10:33:10.351Z,26.9
2017-07-19T10:34:12.431Z,26.7
2017-07-19T10:35:14.512Z,27
2017-07-19T10:36:16.592Z,26.9
2017-07-19T10:37:19.036Z,26.9
2017-07-19T10:38:21.103Z,26.8
2017-07-19T10:39:23.187Z,26.7
2017-07-19T10:40:25.251Z,26.8
2017-07-19T10:41:27.332Z,26.7
2017-07-19T10:42:29.403Z,26.8
2017-07-19T10:43:31.480Z,26.8
2017-07-19T10:44:33.903Z,26.7
2017-07-19T10:45:35.970Z,26.9
2017-07-19T10:46:38.048Z,26.9
2017-07-19T10:47:40.125Z,26.7
2017-07-19T10:48:42.187Z,26.5
2017-07-19T10:49:44.271Z,26.7
2017-07-19T10:50:46.704Z,26.7
2017-07-19T10:51:48.776Z,26.8
2017-07-19T10:52:50.844Z,26.8
2017-07-19T10:53:52.928Z,26.6
2017-07-19T10:54:55.347Z,26.7
2017-07-19T10:55:57.413Z,26.7
2017-07-19T10:56:59.496Z,26.5
2017-07-19T10:58:01.939Z,26.6
2017-07-19T10:59:05.038Z,26.5
2017-07-19T11:00:07.537Z,26.6
2017-07-19T11:01:09.629Z,26.7
2017-07-19T11:02:12.163Z,26.7
2017-07-19T11:03:14.594Z,26.8
2017-07-19T11:04:17.002Z,27
2017-07-19T11:05:19.436Z,27
2017-07-19T11:06:21.506Z,27.3
2017-07-19T11:07:23.932Z,27.5
2017-07-19T11:08:26.009Z,27.6
2017-07-19T11:09:28.431Z,27.8
2017-07-19T11:10:30.502Z,27.9
2017-07-19T11:11:32.574Z,27.4
2017-07-19T11:12:34.980Z,27.2
2017-07-19T11:13:37.082Z,27.1
2017-07-19T11:14:39.492Z,27.1
2017-07-19T11:15:41.568Z,27.1
2017-07-19T11:16:43.974Z,27.1
2017-07-19T11:17:46.408Z,27
2017-07-19T11:18:48.486Z,27.1
2017-07-19T11:19:50.876Z,27.2
2017-07-19T11:20:52.972Z,27.2
2017-07-19T11:21:55.394Z,27.1
2017-07-19T11:22:57.462Z,27.3
2017-07-19T11:23:59.536Z,27.3
2017-07-19T11:25:01.622Z,27.4
2017-07-19T11:26:04.038Z,27
2017-07-19T11:27:06.119Z,27.1
2017-07-19T11:28:08.864Z,27.1
2017-07-19T11:29:10.946Z,27
2017-07-19T11:30:13.355Z,27
2017-07-19T11:31:15.429Z,26.9
2017-07-19T11:32:17.503Z,26.9
2017-07-19T11:33:19.911Z,26.7
2017-07-19T11:34:21.986Z,26.8
2017-07-19T11:35:24.054Z,26.9
2017-07-19T11:36:26.128Z,26.9
2017-07-19T11:37:28.208Z,26.8
2017-07-19T11:38:31.336Z,26.9
2017-07-19T11:39:33.421Z,26.9
2017-07-19T11:40:35.502Z,26.9
2017-07-19T11:41:37.579Z,27
2017-07-19T11:42:39.990Z,27.2
2017-07-19T11:43:42.072Z,27.3
2017-07-19T11:44:44.481Z,27.1
2017-07-19T11:45:46.903Z,27
2017-07-19T11:46:48.976Z,26.9
2017-07-19T11:47:51.032Z,27
2017-07-19T11:48:53.111Z,26.9
2017-07-19T11:49:55.188Z,26.9
2017-07-19T11:50:57.256Z,27.3
2017-07-19T11:51:59.334Z,27.3
2017-07-19T11:53:01.417Z,27.3
2017-07-19T11:54:03.512Z,27.3
2017-07-19T11:55:05.591Z,27.4
2017-07-19T11:56:08.350Z,27.3
2017-07-19T11:57:10.776Z,27.3
2017-07-19T11:58:12.854Z,27.5
2017-07-19T11:59:14.951Z,27.4
2017-07-19T12:00:17.010Z,27.4
2017-07-19T12:01:19.090Z,27.4
2017-07-19T12:02:22.196Z,27.4
2017-07-19T12:03:24.610Z,27.4
2017-07-19T12:04:26.704Z,27.5
2017-07-19T12:05:29.119Z,27.4
2017-07-19T12:06:31.944Z,27.3
2017-07-19T12:07:34.034Z,27.4
2017-07-19T12:08:36.114Z,27.6
2017-07-19T12:09:38.208Z,27.7
2017-07-19T12:10:40.287Z,27.8
2017-07-19T12:11:42.368Z,27.9
2017-07-19T12:12:44.724Z,27.9
2017-07-19T12:13:47.169Z,27.9
2017-07-19T12:14:49.252Z,28
2017-07-19T12:15:51.661Z,27.9
2017-07-19T12:16:53.737Z,28.1
2017-07-19T12:17:56.210Z,28.3
2017-07-19T12:18:58.289Z,28.4
2017-07-19T12:20:00.354Z,28.6
2017-07-19T12:21:02.455Z,28.6
2017-07-19T12:22:04.528Z,28.4
2017-07-19T12:23:06.600Z,28.5
2017-07-19T12:24:09.025Z,28.4
2017-07-19T12:25:11.097Z,28.7
2017-07-19T12:26:13.528Z,28.8
2017-07-19T12:27:15.598Z,28.7
2017-07-19T12:28:18.000Z,28.6
2017-07-19T12:29:20.086Z,28.8
2017-07-19T12:30:22.169Z,28.7
2017-07-19T12:31:24.601Z,28.8
2017-07-19T12:32:26.670Z,28.8
2017-07-19T12:33:28.761Z,28.7
2017-07-19T12:34:30.832Z,28.8
2017-07-19T12:35:33.230Z,29.1
2017-07-19T12:36:35.307Z,28.9
2017-07-19T12:37:37.389Z,28.5
2017-07-19T12:38:39.464Z,28.4
2017-07-19T12:39:41.878Z,28.3
2017-07-19T12:40:43.960Z,28.5
2017-07-19T12:41:46.034Z,28.6
2017-07-19T12:42:48.095Z,28.5
2017-07-19T12:43:50.181Z,28.3
2017-07-19T12:44:52.293Z,28.3
2017-07-19T12:45:54.390Z,28.6
2017-07-19T12:46:56.470Z,28.7
2017-07-19T12:47:58.577Z,28.9
2017-07-19T12:49:00.675Z,29
2017-07-19T12:50:03.481Z,28.9
2017-07-19T12:51:05.561Z,29.1
2017-07-19T12:52:07.625Z,29
2017-07-19T12:53:10.073Z,29.2
2017-07-19T12:54:12.147Z,29.5
2017-07-19T12:55:14.905Z,29.4
2017-07-19T12:56:17.001Z,29.5
2017-07-19T12:57:19.455Z,29.6
2017-07-19T12:58:21.890Z,29.8
2017-07-19T12:59:23.967Z,29.5
2017-07-19T13:00:26.048Z,29.3
2017-07-19T13:01:28.493Z,29
2017-07-19T13:02:30.573Z,29
2017-07-19T13:03:33.002Z,29.1
2017-07-19T13:04:35.093Z,29
2017-07-19T13:05:37.208Z,29.3
2017-07-19T13:06:39.301Z,29.2
2017-07-19T13:07:42.183Z,29.4
2017-07-19T13:08:44.296Z,29.1
2017-07-19T13:09:46.375Z,29.3
2017-07-19T13:10:48.461Z,29.3
2017-07-19T13:11:50.886Z,29.7
2017-07-19T13:12:52.968Z,29.8
2017-07-19T13:13:55.389Z,29.8
2017-07-19T13:14:57.581Z,29.7
2017-07-19T13:15:59.666Z,29.7
2017-07-19T13:17:01.778Z,29.9
2017-07-19T13:18:03.904Z,29.9
2017-07-19T13:19:06.323Z,30
2017-07-19T13:20:08.762Z,30
2017-07-19T13:21:10.859Z,30
2017-07-19T13:22:13.309Z,30.1
2017-07-19T13:23:15.751Z,29.8
2017-07-19T13:24:18.265Z,29.9
2017-07-19T13:25:20.513Z,30
2017-07-19T13:26:22.606Z,30.2
2017-07-19T13:27:25.037Z,30
2017-07-19T13:28:27.129Z,29.9
2017-07-19T13:29:29.209Z,30.3
2017-07-19T13:30:31.328Z,30.4
2017-07-19T13:31:33.544Z,30.4
2017-07-19T13:32:35.627Z,30.6
2017-07-19T13:33:38.416Z,30.5
2017-07-19T13:34:40.482Z,30.4
2017-07-19T13:35:42.906Z,30.3
2017-07-19T13:36:44.988Z,30.3
2017-07-19T13:37:47.062Z,30.1
2017-07-19T13:38:49.488Z,30.3
2017-07-19T13:39:51.579Z,30.2
2017-07-19T13:40:54.357Z,29.9
2017-07-19T13:41:56.420Z,30
2017-07-19T13:42:58.515Z,30.1
2017-07-19T13:44:01.280Z,29.9
2017-07-19T13:45:03.689Z,29.9
2017-07-19T13:46:06.118Z,29.7
2017-07-19T13:47:08.880Z,30.1
2017-07-19T13:48:10.978Z,30.2
2017-07-19T13:49:13.065Z,30.3
2017-07-19T13:50:15.156Z,30
2017-07-19T13:51:17.293Z,30.2
2017-07-19T13:52:19.711Z,30.4
2017-07-19T13:53:21.799Z,29.9